Time;durP1;ratioP1;P1;durP2;ratioP2;P2;SDS_P1;SDS_P2;PMS_P1;PMS_P2;Temp;Humidity;BMP_temperature;BMP_pressure;BME280_temperature;BME280_humidity;BME280_pressure;Samples;Min_cycle;Max_cycle;Signal;HPM_P1;HPM_P2
2020/12/30 00:01:07;;;;;;;1999.90;999.90;;;4.40;99.90;;;;;;5060145;28;20222;-87
2020/12/30 00:03:34;;;;;;;1999.90;999.90;;;4.40;99.90;;;;;;5078726;28;20623;-87
2020/12/30 00:06:00;;;;;;;1999.90;999.90;;;4.40;99.90;;;;;;5079192;28;20237;-88
2020/12/30 00:08:26;;;;;;;1999.90;999.90;;;4.40;99.90;;;;;;5060939;28;20626;-87
2020/12/30 00:10:51;;;;;;;1999.90;999.90;;;4.40;99.90;;;;;;5061434;28;20168;-88
2020/12/30 00:13:18;;;;;;;1999.90;999.90;;;4.40;99.90;;;;;;5061480;28;20179;-87
2020/12/30 00:15:44;;;;;;;1999.90;999.90;;;4.40;99.90;;;;;;5060922;28;20171;-87
2020/12/30 00:18:10;;;;;;;1999.90;999.90;;;4.40;99.90;;;;;;5061829;28;20175;-87
2020/12/30 00:20:36;;;;;;;1999.90;999.90;;;4.40;99.90;;;;;;5079866;28;20524;-88
2020/12/30 00:23:01;;;;;;;1999.90;999.90;;;4.40;99.90;;;;;;5079431;28;20210;-87
2020/12/30 00:25:27;;;;;;;1999.90;999.90;;;4.40;99.90;;;;;;5080089;28;20561;-87
2020/12/30 00:27:53;;;;;;;1999.90;999.90;;;4.40;99.90;;;;;;5079411;28;20159;-87
2020/12/30 00:30:19;;;;;;;1999.90;999.90;;;4.40;99.90;;;;;;5061745;28;20406;-88
2020/12/30 00:32:46;;;;;;;1999.90;999.90;;;4.40;99.90;;;;;;5061793;28;20406;-88
2020/12/30 00:35:14;;;;;;;1999.90;999.90;;;4.40;99.90;;;;;;5078596;28;20535;-87
2020/12/30 00:37:40;;;;;;;1999.90;999.90;;;4.30;99.90;;;;;;5078386;28;20164;-87
2020/12/30 00:40:06;;;;;;;1999.90;999.90;;;4.40;99.90;;;;;;5077426;28;20708;-87
2020/12/30 00:42:34;;;;;;;1999.90;999.90;;;4.40;99.90;;;;;;5058854;28;20175;-88
2020/12/30 00:45:00;;;;;;;1999.90;999.90;;;4.40;99.90;;;;;;5076651;28;20180;-87
2020/12/30 00:47:27;;;;;;;1999.90;999.90;;;4.40;99.90;;;;;;5077088;28;20171;-87
2020/12/30 00:49:53;;;;;;;1999.90;999.90;;;4.30;99.90;;;;;;5058373;28;20520;-87
2020/12/30 00:52:19;;;;;;;1999.90;999.90;;;4.40;99.90;;;;;;5057670;28;20168;-87
2020/12/30 00:54:45;;;;;;;1999.90;999.90;;;4.40;99.90;;;;;;5058646;28;20202;-87
2020/12/30 00:57:10;;;;;;;1999.90;999.90;;;4.40;99.90;;;;;;5075745;28;20242;-87
2020/12/30 00:59:36;;;;;;;1999.90;999.90;;;4.40;99.90;;;;;;5076967;28;20587;-87
2020/12/30 01:02:02;;;;;;;1999.90;999.90;;;4.40;99.90;;;;;;5057602;28;20192;-87
2020/12/30 01:04:27;;;;;;;1999.90;999.90;;;4.40;99.90;;;;;;5058433;28;20172;-87
2020/12/30 01:06:54;;;;;;;1999.90;999.90;;;4.30;99.90;;;;;;5076605;28;20174;-87
2020/12/30 01:09:22;;;;;;;1999.90;999.90;;;4.30;99.90;;;;;;5076910;28;20156;-87
2020/12/30 01:11:47;;;;;;;1999.90;999.90;;;4.30;99.90;;;;;;5077430;28;20182;-87
2020/12/30 01:14:13;;;;;;;1999.90;999.90;;;4.30;99.90;;;;;;5059451;28;20242;-87
2020/12/30 01:16:39;;;;;;;1999.90;999.90;;;4.30;99.90;;;;;;5076676;28;20160;-87
2020/12/30 01:19:06;;;;;;;1999.90;999.90;;;4.30;99.90;;;;;;5059180;28;20416;-87
2020/12/30 01:21:42;;;;;;;1999.90;999.90;;;4.30;99.90;;;;;;5077212;28;20626;-87
2020/12/30 01:24:08;;;;;;;1999.90;999.90;;;4.40;99.90;;;;;;5059248;28;20569;-87
2020/12/30 01:26:34;;;;;;;1999.90;999.90;;;4.40;99.90;;;;;;5059486;28;20167;-87
2020/12/30 01:29:00;;;;;;;1999.90;999.90;;;4.40;99.90;;;;;;5059336;28;20417;-87
2020/12/30 01:31:30;;;;;;;1999.90;999.90;;;4.30;99.90;;;;;;5058930;28;20164;-87
2020/12/30 01:33:56;;;;;;;1999.90;999.90;;;4.40;99.90;;;;;;5058576;28;20203;-87
2020/12/30 01:36:21;;;;;;;1999.90;999.90;;;4.30;99.90;;;;;;5076869;28;20251;-87
2020/12/30 01:38:48;;;;;;;1999.90;999.90;;;4.40;99.90;;;;;;5058905;28;20274;-87
2020/12/30 01:41:15;;;;;;;1999.90;999.90;;;4.40;99.90;;;;;;5077054;28;20194;-87
2020/12/30 01:43:40;;;;;;;1999.90;999.90;;;4.30;99.90;;;;;;5076330;28;20168;-87
2020/12/30 01:46:06;;;;;;;1999.90;999.90;;;4.30;99.90;;;;;;5059067;28;20175;-87
2020/12/30 01:48:34;;;;;;;1999.90;999.90;;;4.40;99.90;;;;;;5076878;28;20228;-87
2020/12/30 01:51:01;;;;;;;1999.90;999.90;;;4.40;99.90;;;;;;5058476;28;20657;-87
2020/12/30 01:53:26;;;;;;;1999.90;999.90;;;4.40;99.90;;;;;;5058243;28;20172;-87
2020/12/30 01:55:54;;;;;;;1999.90;999.90;;;4.40;99.90;;;;;;5077004;28;20170;-87
2020/12/30 01:58:20;;;;;;;1999.90;999.90;;;4.40;99.90;;;;;;5076546;28;20398;-87
2020/12/30 02:00:52;;;;;;;1999.90;999.90;;;4.40;99.90;;;;;;5076621;28;20245;-88
2020/12/30 02:03:22;;;;;;;1999.90;999.90;;;4.30;99.90;;;;;;5078082;28;20226;-87
2020/12/30 02:05:48;;;;;;;1999.90;999.90;;;4.30;99.90;;;;;;5059217;28;20175;-87
2020/12/30 02:08:14;;;;;;;1999.90;999.90;;;4.40;99.90;;;;;;5058542;28;20168;-88
2020/12/30 02:10:40;;;;;;;1999.90;999.90;;;4.40;99.90;;;;;;5077932;28;20168;-88
2020/12/30 02:13:05;;;;;;;1999.90;999.90;;;4.40;99.90;;;;;;5063385;28;20187;-87
2020/12/30 02:15:33;;;;;;;1999.90;999.90;;;4.40;99.90;;;;;;5064716;28;20171;-87
2020/12/30 02:18:00;;;;;;;1999.90;999.90;;;4.40;99.90;;;;;;5082301;28;20175;-87
2020/12/30 02:20:26;;;;;;;1999.90;999.90;;;4.40;99.90;;;;;;5082285;28;20184;-87
2020/12/30 02:23:12;;;;;;;1999.90;999.90;;;4.40;99.90;;;;;;5082574;28;20160;-87
2020/12/30 02:25:38;;;;;;;1999.90;999.90;;;4.30;99.90;;;;;;5082627;28;20645;-87
2020/12/30 02:28:04;;;;;;;1999.90;999.90;;;4.40;99.90;;;;;;5064489;28;20191;-88
2020/12/30 02:30:30;;;;;;;1999.90;999.90;;;4.40;99.90;;;;;;5082660;28;20218;-87
2020/12/30 02:32:55;;;;;;;1999.90;999.90;;;4.40;99.90;;;;;;5064299;28;20168;-87
2020/12/30 02:35:24;;;;;;;1999.90;999.90;;;4.40;99.90;;;;;;5081915;28;20186;-87
2020/12/30 02:37:51;;;;;;;1999.90;999.90;;;4.40;99.90;;;;;;5063682;28;20205;-87
2020/12/30 02:40:18;;;;;;;1999.90;999.90;;;4.40;99.90;;;;;;5082396;28;20241;-87
2020/12/30 02:42:44;;;;;;;1999.90;999.90;;;4.30;99.90;;;;;;5064197;28;20213;-87
2020/12/30 02:45:10;;;;;;;1999.90;999.90;;;4.30;99.90;;;;;;5064422;28;20670;-87
2020/12/30 02:47:36;;;;;;;1999.90;999.90;;;4.30;99.90;;;;;;5063388;28;20214;-87
2020/12/30 02:50:03;;;;;;;1999.90;999.90;;;4.30;99.90;;;;;;5081719;28;20409;-88
2020/12/30 02:52:29;;;;;;;1999.90;999.90;;;4.40;99.90;;;;;;5081924;28;20191;-87
2020/12/30 02:54:55;;;;;;;1999.90;999.90;;;4.30;99.90;;;;;;5064117;28;20167;-88
2020/12/30 02:57:21;;;;;;;1999.90;999.90;;;4.30;99.90;;;;;;5063879;28;20213;-87
2020/12/30 02:59:47;;;;;;;1999.90;999.90;;;4.40;99.90;;;;;;5082311;28;20164;-86
2020/12/30 03:02:12;;;;;;;1999.90;999.90;;;4.30;99.90;;;;;;5081474;28;20187;-87
2020/12/30 03:04:38;;;;;;;1999.90;999.90;;;4.30;99.90;;;;;;5064153;28;20160;-87
2020/12/30 03:07:04;;;;;;;1999.90;999.90;;;4.30;99.90;;;;;;5063514;28;20461;-87
2020/12/30 03:09:30;;;;;;;1999.90;999.90;;;4.30;99.90;;;;;;5063898;28;20459;-88
2020/12/30 03:11:56;;;;;;;1999.90;999.90;;;4.40;99.90;;;;;;5063714;28;20168;-87
2020/12/30 03:14:22;;;;;;;1999.90;999.90;;;4.30;99.90;;;;;;5081725;28;20167;-88
2020/12/30 03:16:48;;;;;;;1999.90;999.90;;;4.40;99.90;;;;;;5081189;28;20554;-87
2020/12/30 03:19:14;;;;;;;1999.90;999.90;;;4.30;99.90;;;;;;5081893;28;20164;-87
2020/12/30 03:21:40;;;;;;;1999.90;999.90;;;4.30;99.90;;;;;;5080173;28;20192;-87
2020/12/30 03:24:06;;;;;;;1999.90;999.90;;;4.30;99.90;;;;;;5061372;28;20172;-87
2020/12/30 03:26:33;;;;;;;1999.90;999.90;;;4.40;99.90;;;;;;5080453;28;20175;-87
2020/12/30 03:29:02;;;;;;;1999.90;999.90;;;4.40;99.90;;;;;;5062364;28;20189;-87
2020/12/30 03:31:31;;;;;;;1999.90;999.90;;;4.40;99.90;;;;;;5079814;28;20163;-87
2020/12/30 03:33:57;;;;;;;1999.90;999.90;;;4.30;99.90;;;;;;5079769;28;20167;-87
2020/12/30 03:36:24;;;;;;;1999.90;999.90;;;4.30;99.90;;;;;;5079468;28;20164;-87
2020/12/30 03:38:50;;;;;;;1999.90;999.90;;;4.30;99.90;;;;;;5079655;28;20168;-87
2020/12/30 03:41:16;;;;;;;1999.90;999.90;;;4.30;99.90;;;;;;5061837;28;20188;-87
2020/12/30 03:43:42;;;;;;;1999.90;999.90;;;4.30;99.90;;;;;;5079273;28;20394;-87
2020/12/30 03:46:07;;;;;;;1999.90;999.90;;;4.30;99.90;;;;;;5079503;28;20176;-87
2020/12/30 03:48:33;;;;;;;1999.90;999.90;;;4.30;99.90;;;;;;5079722;28;20160;-87
2020/12/30 03:50:59;;;;;;;1999.90;999.90;;;4.40;99.90;;;;;;5078783;28;20167;-87
2020/12/30 03:53:25;;;;;;;1999.90;999.90;;;4.30;99.90;;;;;;5062466;28;20209;-87
2020/12/30 03:55:51;;;;;;;1999.90;999.90;;;4.30;99.90;;;;;;5061442;28;20172;-87
2020/12/30 03:58:16;;;;;;;1999.90;999.90;;;4.40;99.90;;;;;;5079155;28;20171;-87
2020/12/30 04:00:42;;;;;;;1999.90;999.90;;;4.40;99.90;;;;;;5079486;28;20625;-87
2020/12/30 04:03:08;;;;;;;1999.90;999.90;;;4.40;99.90;;;;;;5078740;28;20198;-87
2020/12/30 04:05:33;;;;;;;1999.90;999.90;;;4.40;99.90;;;;;;5078917;28;20156;-87
2020/12/30 04:07:59;;;;;;;1999.90;999.90;;;4.30;99.90;;;;;;5061370;28;20246;-87
2020/12/30 04:10:25;;;;;;;1999.90;999.90;;;4.30;99.90;;;;;;5060715;28;20172;-87
2020/12/30 04:12:51;;;;;;;1999.90;999.90;;;4.30;99.90;;;;;;5078785;28;20173;-87
2020/12/30 04:15:17;;;;;;;1999.90;999.90;;;4.20;99.90;;;;;;5078980;28;20160;-88
2020/12/30 04:17:43;;;;;;;1999.90;999.90;;;4.20;99.90;;;;;;5078302;28;20167;-87
2020/12/30 04:20:08;;;;;;;1999.90;999.90;;;4.20;99.90;;;;;;5078806;28;20173;-87
2020/12/30 04:22:34;;;;;;;1999.90;999.90;;;4.20;99.90;;;;;;5078542;28;20190;-87
2020/12/30 04:25:00;;;;;;;1999.90;999.90;;;4.10;99.90;;;;;;5079084;28;20164;-87
2020/12/30 04:27:25;;;;;;;1999.90;999.90;;;4.10;99.90;;;;;;5077794;28;20167;-87
2020/12/30 04:29:51;;;;;;;1999.90;999.90;;;4.00;99.90;;;;;;5077768;28;20630;-87
2020/12/30 04:32:17;;;;;;;1999.90;999.90;;;4.00;99.90;;;;;;5060841;28;20175;-87
2020/12/30 04:34:42;;;;;;;1999.90;999.90;;;3.80;99.90;;;;;;5077726;28;20167;-87
2020/12/30 04:37:08;;;;;;;1999.90;999.90;;;3.80;99.90;;;;;;5059723;28;20557;-87
2020/12/30 04:39:34;;;;;;;1999.90;999.90;;;3.70;99.90;;;;;;5077149;28;20581;-87
2020/12/30 04:42:01;;;;;;;1999.90;999.90;;;3.60;99.90;;;;;;5076912;28;20654;-86
2020/12/30 04:44:32;;;;;;;1999.90;999.90;;;3.50;99.90;;;;;;5058356;28;20270;-87
2020/12/30 04:46:59;;;;;;;1999.90;999.90;;;3.50;99.90;;;;;;5058133;28;20630;-87
2020/12/30 04:49:26;;;;;;;1999.90;999.90;;;3.40;99.90;;;;;;5058452;28;20159;-86
2020/12/30 04:51:55;;;;;;;1999.90;999.90;;;3.30;99.90;;;;;;5076981;28;20164;-86
2020/12/30 04:54:21;;;;;;;1999.90;999.90;;;3.20;99.90;;;;;;5076378;28;20167;-87
2020/12/30 04:57:01;;;;;;;1999.90;999.90;;;3.10;99.90;;;;;;5058524;28;20175;-87
2020/12/30 04:59:28;;;;;;;1999.90;999.90;;;3.10;99.90;;;;;;5076526;28;20407;-86
2020/12/30 05:02:04;;;;;;;1999.90;999.90;;;3.00;99.90;;;;;;5076256;28;20663;-87
2020/12/30 05:04:31;;;;;;;1999.90;999.90;;;3.00;99.90;;;;;;5076837;28;20539;-86
2020/12/30 05:07:00;;;;;;;1999.90;999.90;;;2.90;99.90;;;;;;5058270;28;20318;-86
2020/12/30 05:09:27;;;;;;;1999.90;999.90;;;2.90;99.90;;;;;;5076604;28;20268;-87
2020/12/30 05:11:53;;;;;;;1999.90;999.90;;;2.80;99.90;;;;;;5058631;28;20167;-86
2020/12/30 05:14:19;;;;;;;1999.90;999.90;;;2.80;99.90;;;;;;5077128;28;20515;-87
2020/12/30 05:16:44;;;;;;;1999.90;999.90;;;2.70;99.90;;;;;;5076355;28;20407;-87
2020/12/30 05:19:10;;;;;;;1999.90;999.90;;;2.70;99.90;;;;;;5058771;28;20168;-87
2020/12/30 05:21:36;;;;;;;1999.90;999.90;;;2.70;99.90;;;;;;5076662;28;20194;-87
2020/12/30 05:24:04;;;;;;;1999.90;999.90;;;2.70;99.90;;;;;;5058732;28;20164;-87
2020/12/30 05:26:31;;;;;;;1999.90;999.90;;;2.70;99.90;;;;;;5076306;28;20202;-87
2020/12/30 05:28:57;;;;;;;1999.90;999.90;;;2.70;99.90;;;;;;5058196;28;20164;-86
2020/12/30 05:31:23;;;;;;;1999.90;999.90;;;2.70;99.90;;;;;;5076403;28;20175;-86
2020/12/30 05:33:49;;;;;;;1999.90;999.90;;;2.70;99.90;;;;;;5076340;28;20167;-86
2020/12/30 05:36:15;;;;;;;1999.90;999.90;;;2.80;99.90;;;;;;5075510;28;20171;-86
2020/12/30 05:38:41;;;;;;;1999.90;999.90;;;2.70;99.90;;;;;;5058320;28;20171;-86
2020/12/30 05:41:18;;;;;;;1999.90;999.90;;;2.80;99.90;;;;;;5057682;28;20382;-86
2020/12/30 05:43:44;;;;;;;1999.90;999.90;;;2.80;99.90;;;;;;5076563;28;20381;-87
2020/12/30 05:46:09;;;;;;;1999.90;999.90;;;2.90;99.90;;;;;;5058691;28;20642;-87
2020/12/30 05:48:35;;;;;;;1999.90;999.90;;;2.90;99.90;;;;;;5079946;28;20160;-87
2020/12/30 05:51:00;;;;;;;1999.90;999.90;;;2.90;99.90;;;;;;5062019;28;20170;-87
2020/12/30 05:53:26;;;;;;;1999.90;999.90;;;2.90;99.90;;;;;;5080665;28;20178;-87
2020/12/30 05:56:08;;;;;;;1999.90;999.90;;;2.90;99.90;;;;;;5080277;28;20591;-87
2020/12/30 05:58:43;;;;;;;1999.90;999.90;;;2.80;99.90;;;;;;5062168;28;20152;-87
2020/12/30 06:01:27;;;;;;;1999.90;999.90;;;2.80;99.90;;;;;;5080861;28;20179;-87
2020/12/30 06:03:53;;;;;;;1999.90;999.90;;;2.70;99.90;;;;;;5080030;28;20159;-87
2020/12/30 06:06:21;;;;;;;1999.90;999.90;;;2.70;99.90;;;;;;5079643;28;20164;-87
2020/12/30 06:08:50;;;;;;;1999.90;999.90;;;2.70;99.90;;;;;;5062612;28;20715;-87
2020/12/30 06:11:24;;;;;;;1999.90;999.90;;;2.70;99.90;;;;;;5079325;28;20290;-87
2020/12/30 06:13:53;;;;;;;1999.90;999.90;;;2.60;99.90;;;;;;5061503;28;20187;-87
2020/12/30 06:16:28;;;;;;;1999.90;999.90;;;2.50;99.90;;;;;;5061651;28;20531;-87
2020/12/30 06:18:56;;;;;;;1999.90;999.90;;;2.40;99.90;;;;;;5079780;28;20159;-87
2020/12/30 06:21:27;;;;;;;1999.90;999.90;;;2.40;99.90;;;;;;5079701;28;20188;-87
2020/12/30 06:23:56;;;;;;;1999.90;999.90;;;2.40;99.90;;;;;;5080194;28;20149;-87
2020/12/30 06:26:27;;;;;;;1999.90;999.90;;;2.30;99.90;;;;;;5080030;28;20217;-87
2020/12/30 06:28:55;;;;;;;1999.90;999.90;;;2.30;99.90;;;;;;5079149;28;20140;-87
2020/12/30 06:31:21;;;;;;;1999.90;999.90;;;2.30;99.90;;;;;;5061283;28;20194;-87
2020/12/30 06:33:48;;;;;;;1999.90;999.90;;;2.20;99.90;;;;;;5061595;28;20172;-87
2020/12/30 06:36:23;;;;;;;1999.90;999.90;;;2.20;99.90;;;;;;5079811;28;20172;-87
2020/12/30 06:38:48;;;;;;;1999.90;999.90;;;2.20;99.90;;;;;;5061508;28;20530;-87
2020/12/30 06:41:14;;;;;;;1999.90;999.90;;;2.20;99.90;;;;;;5079811;28;20195;-87
2020/12/30 06:43:44;;;;;;;1999.90;999.90;;;2.20;99.90;;;;;;5079811;28;20171;-87
2020/12/30 06:46:14;;;;;;;1999.90;999.90;;;2.20;99.90;;;;;;5061462;28;20525;-87
2020/12/30 06:48:57;;;;;;;1999.90;999.90;;;2.10;99.90;;;;;;5061087;28;20226;-87
2020/12/30 06:51:24;;;;;;;1999.90;999.90;;;2.10;99.90;;;;;;5062084;28;20156;-87
2020/12/30 06:53:54;;;;;;;1999.90;999.90;;;2.10;99.90;;;;;;5060847;28;20293;-87
2020/12/30 06:56:50;;;;;;;1999.90;999.90;;;2.10;99.90;;;;;;5078840;28;20217;-87
2020/12/30 06:59:26;;;;;;;1999.90;999.90;;;2.10;99.90;;;;;;5060925;28;20183;-87
2020/12/30 07:02:07;;;;;;;1999.90;999.90;;;2.10;99.90;;;;;;5060751;28;20321;-87
2020/12/30 07:04:36;;;;;;;1999.90;999.90;;;2.10;99.90;;;;;;5060633;28;20152;-87
2020/12/30 07:07:18;;;;;;;1999.90;999.90;;;2.10;99.90;;;;;;5060757;28;20187;-87
2020/12/30 07:09:44;;;;;;;1999.90;999.90;;;2.00;99.90;;;;;;5078339;28;20179;-87
2020/12/30 07:12:09;;;;;;;1999.90;999.90;;;2.00;99.90;;;;;;5079594;28;20211;-87
2020/12/30 07:14:37;;;;;;;1999.90;999.90;;;2.00;99.90;;;;;;5078582;28;20527;-87
2020/12/30 07:17:07;;;;;;;1999.90;999.90;;;2.10;99.90;;;;;;5078477;28;20210;-87
2020/12/30 07:19:33;;;;;;;1999.90;999.90;;;2.20;99.90;;;;;;5078586;28;20159;-87
2020/12/30 07:22:09;;;;;;;1999.90;999.90;;;2.20;99.90;;;;;;5062433;28;20195;-87
2020/12/30 07:24:52;;;;;;;1999.90;999.90;;;2.40;99.90;;;;;;5081092;28;20197;-87
2020/12/30 07:27:18;;;;;;;1999.90;999.90;;;2.40;99.90;;;;;;5063012;28;20171;-87
2020/12/30 07:29:45;;;;;;;1999.90;999.90;;;2.60;99.90;;;;;;5063547;28;20193;-87
2020/12/30 07:32:12;;;;;;;1999.90;999.90;;;2.60;99.90;;;;;;5081480;28;20199;-88
2020/12/30 07:34:43;;;;;;;1999.90;999.90;;;2.70;99.90;;;;;;5081581;28;20164;-87
2020/12/30 07:37:10;;;;;;;1999.90;999.90;;;2.80;99.90;;;;;;5081424;28;20167;-88
2020/12/30 07:39:39;;;;;;;1999.90;999.90;;;2.70;99.90;;;;;;5064126;28;20350;-87
2020/12/30 07:42:21;;;;;;;1999.90;999.90;;;2.80;99.90;;;;;;5063791;28;20260;-87
2020/12/30 07:44:48;;;;;;;1999.90;999.90;;;2.90;99.90;;;;;;5062745;28;20183;-87
2020/12/30 07:47:16;;;;;;;1999.90;999.90;;;3.00;99.90;;;;;;5061441;28;20530;-87
2020/12/30 07:49:45;;;;;;;1999.90;999.90;;;3.00;99.90;;;;;;5076223;28;20164;-87
2020/12/30 07:52:11;;;;;;;1999.90;999.90;;;3.10;99.90;;;;;;5058244;28;20171;-88
2020/12/30 07:54:38;;;;;;;1999.90;999.90;;;3.10;99.90;;;;;;5057786;28;20538;-87
2020/12/30 07:57:08;;;;;;;1999.90;999.90;;;3.20;99.90;;;;;;5057629;28;20180;-88
2020/12/30 07:59:34;;;;;;;1999.90;999.90;;;3.20;99.90;;;;;;5075438;28;20168;-88
2020/12/30 08:02:10;;;;;;;1999.90;999.90;;;3.20;99.90;;;;;;5058341;28;20237;-87
2020/12/30 08:04:37;;;;;;;1999.90;999.90;;;3.20;99.90;;;;;;5077086;28;20249;-87
2020/12/30 08:07:05;;;;;;;1999.90;999.90;;;3.30;99.90;;;;;;5058853;28;20260;-88
2020/12/30 08:09:36;;;;;;;1999.90;999.90;;;3.30;99.90;;;;;;5076486;28;20634;-88
2020/12/30 08:12:04;;;;;;;1999.90;999.90;;;3.50;99.90;;;;;;5074651;28;20206;-87
2020/12/30 08:14:34;;;;;;;1999.90;999.90;;;3.50;99.90;;;;;;5057065;28;20168;-87
2020/12/30 08:17:07;;;;;;;1999.90;999.90;;;3.60;99.90;;;;;;5057403;28;20576;-87
2020/12/30 08:19:49;;;;;;;1999.90;999.90;;;3.60;99.90;;;;;;5057441;28;20195;-87
2020/12/30 08:22:20;;;;;;;1999.90;999.90;;;3.60;99.90;;;;;;5057311;28;20195;-87
2020/12/30 08:24:57;;;;;;;1999.90;999.90;;;3.60;99.90;;;;;;5058580;28;20645;-85
2020/12/30 08:27:26;;;;;;;1999.90;999.90;;;3.60;99.90;;;;;;5075740;28;20250;-88
2020/12/30 08:29:55;;;;;;;1999.90;999.90;;;3.60;99.90;;;;;;5075200;28;20562;-85
2020/12/30 08:32:29;;;;;;;1999.90;999.90;;;3.70;99.90;;;;;;5075233;28;20190;-85
2020/12/30 08:35:26;;;;;;;1999.90;999.90;;;3.80;99.90;;;;;;5057049;28;20168;-84
2020/12/30 08:38:06;;;;;;;1999.90;999.90;;;3.80;99.90;;;;;;5074806;28;20148;-85
2020/12/30 08:40:34;;;;;;;1999.90;999.90;;;3.90;99.90;;;;;;5057401;28;20609;-88
2020/12/30 08:43:31;;;;;;;1999.90;999.90;;;3.90;99.90;;;;;;5057938;28;20217;-85
2020/12/30 08:46:06;;;;;;;1999.90;999.90;;;4.00;99.90;;;;;;5076781;28;20258;-87
2020/12/30 08:48:38;;;;;;;1999.90;999.90;;;4.00;99.90;;;;;;5076013;28;20171;-88
2020/12/30 08:51:03;;;;;;;1999.90;999.90;;;4.10;99.90;;;;;;5057795;28;20634;-88
2020/12/30 08:53:39;;;;;;;1999.90;999.90;;;4.10;99.90;;;;;;5056900;28;20171;-88
2020/12/30 08:56:08;;;;;;;1999.90;999.90;;;4.20;99.90;;;;;;5057097;28;20171;-85
2020/12/30 08:58:34;;;;;;;1999.90;999.90;;;4.20;99.90;;;;;;5074865;28;20164;-85
2020/12/30 09:01:01;;;;;;;1999.90;999.90;;;4.20;99.90;;;;;;5074910;28;20207;-85
2020/12/30 09:03:29;;;;;;;1999.90;999.90;;;4.20;99.90;;;;;;5075224;28;20163;-85
2020/12/30 09:05:59;;;;;;;1999.90;999.90;;;4.30;99.90;;;;;;5075131;28;20170;-85
2020/12/30 09:08:32;;;;;;;1999.90;999.90;;;4.40;99.90;;;;;;5075057;28;20164;-85
2020/12/30 09:10:58;;;;;;;1999.90;999.90;;;4.40;99.90;;;;;;5074344;28;20511;-86
2020/12/30 09:13:29;;;;;;;1999.90;999.90;;;4.50;99.90;;;;;;5056733;28;20167;-86
2020/12/30 09:16:04;;;;;;;1999.90;999.90;;;4.40;99.90;;;;;;5056646;28;20746;-86
2020/12/30 09:18:31;;;;;;;1999.90;999.90;;;4.50;99.90;;;;;;5057346;28;20155;-86
2020/12/30 09:20:57;;;;;;;1999.90;999.90;;;4.40;99.90;;;;;;5057383;28;20566;-87
2020/12/30 09:23:24;;;;;;;1999.90;999.90;;;4.40;99.90;;;;;;5075420;28;20171;-88
2020/12/30 09:25:51;;;;;;;1999.90;999.90;;;4.30;99.90;;;;;;5078167;28;20215;-86
2020/12/30 09:28:19;;;;;;;1999.90;999.90;;;4.30;99.90;;;;;;5056867;28;20172;-85
2020/12/30 09:30:47;;;;;;;1999.90;999.90;;;4.40;99.90;;;;;;5058624;28;20168;-86
2020/12/30 09:33:17;;;;;;;1999.90;999.90;;;4.50;99.90;;;;;;5076234;28;20168;-86
2020/12/30 09:35:44;;;;;;;1999.90;999.90;;;4.50;99.90;;;;;;5058817;28;20164;-85
2020/12/30 09:38:19;;;;;;;1999.90;999.90;;;4.50;99.90;;;;;;5059058;28;20179;-86
2020/12/30 09:40:47;;;;;;;1999.90;999.90;;;4.50;99.90;;;;;;5077477;28;20182;-86
2020/12/30 09:43:16;;;;;;;1999.90;999.90;;;4.60;99.90;;;;;;5060003;28;20175;-86
2020/12/30 09:45:43;;;;;;;1999.90;999.90;;;4.60;99.90;;;;;;5057684;28;20201;-85
2020/12/30 09:48:22;;;;;;;1999.90;999.90;;;4.80;99.90;;;;;;5059425;28;20164;-86
2020/12/30 09:50:49;;;;;;;1999.90;999.90;;;4.80;99.90;;;;;;5077626;28;20151;-86
2020/12/30 09:53:15;;;;;;;1999.90;999.90;;;4.90;99.90;;;;;;5078581;28;20263;-86
2020/12/30 09:55:45;;;;;;;1999.90;999.90;;;4.90;99.90;;;;;;5061190;28;20258;-86
2020/12/30 09:58:12;;;;;;;1999.90;999.90;;;5.00;99.90;;;;;;5078681;28;20182;-86
2020/12/30 10:00:37;;;;;;;1999.90;999.90;;;5.20;99.90;;;;;;5078765;28;20733;-86
2020/12/30 10:03:03;;;;;;;1999.90;999.90;;;5.20;99.90;;;;;;5060466;28;20196;-86
2020/12/30 10:05:29;;;;;;;1999.90;999.90;;;5.20;99.90;;;;;;5060389;28;20171;-86
2020/12/30 10:07:58;;;;;;;1999.90;999.90;;;5.30;99.90;;;;;;5078450;28;20242;-85
2020/12/30 10:10:24;;;;;;;1999.90;999.90;;;5.30;99.90;;;;;;5077706;28;20195;-86
2020/12/30 10:12:50;;;;;;;1999.90;999.90;;;5.40;99.90;;;;;;5078019;28;20573;-86
2020/12/30 10:15:18;;;;;;;1999.90;999.90;;;5.50;99.90;;;;;;5061092;28;20164;-86
2020/12/30 10:17:45;;;;;;;1999.90;999.90;;;5.60;99.90;;;;;;5079197;28;20900;-86
2020/12/30 10:20:11;;;;;;;1999.90;999.90;;;5.70;99.90;;;;;;5078797;28;20175;-86
2020/12/30 10:22:38;;;;;;;1999.90;999.90;;;5.80;99.90;;;;;;5078028;28;20171;-86
2020/12/30 10:25:06;;;;;;;1999.90;999.90;;;5.80;99.90;;;;;;5078720;28;20171;-86
2020/12/30 10:27:31;;;;;;;1999.90;999.90;;;5.80;99.90;;;;;;5078003;28;20531;-86
2020/12/30 10:29:57;;;;;;;1999.90;999.90;;;5.70;99.90;;;;;;5060842;28;20164;-86
2020/12/30 10:32:23;;;;;;;1999.90;999.90;;;5.70;99.90;;;;;;5078813;28;20948;-86
2020/12/30 10:34:48;;;;;;;1999.90;999.90;;;5.70;99.90;;;;;;5081010;28;20171;-86
2020/12/30 10:37:17;;;;;;;1999.90;999.90;;;5.60;99.90;;;;;;5063826;28;20677;-86
2020/12/30 10:39:48;;;;;;;1999.90;999.90;;;5.70;99.90;;;;;;5081365;28;20209;-86
2020/12/30 10:42:15;;;;;;;1999.90;999.90;;;5.80;99.90;;;;;;5081006;28;20172;-85
2020/12/30 10:44:41;;;;;;;1999.90;999.90;;;5.90;99.90;;;;;;5051319;28;803227;-86
2020/12/30 10:47:06;;;;;;;1999.90;999.90;;;5.90;99.90;;;;;;5060817;28;20172;-86
2020/12/30 10:49:32;;;;;;;1999.90;999.90;;;5.90;99.90;;;;;;5080086;28;20614;-86
2020/12/30 10:51:58;;;;;;;1999.90;999.90;;;6.00;99.90;;;;;;5079392;28;20251;-86
2020/12/30 10:54:23;;;;;;;1999.90;999.90;;;6.20;99.90;;;;;;5060045;28;20171;-85
2020/12/30 10:56:54;;;;;;;1999.90;999.90;;;6.20;99.90;;;;;;5080129;28;20219;-86
2020/12/30 10:59:22;;;;;;;1999.90;999.90;;;6.40;99.90;;;;;;5081172;28;20248;-86
2020/12/30 11:01:51;;;;;;;1999.90;999.90;;;6.40;99.90;;;;;;5060813;28;20202;-86
2020/12/30 11:04:18;;;;;;;1999.90;999.90;;;6.40;99.90;;;;;;5078453;28;20172;-86
2020/12/30 11:06:44;;;;;;;1999.90;999.90;;;6.40;99.90;;;;;;5060593;28;20217;-86
2020/12/30 11:09:10;;;;;;;1999.90;999.90;;;6.40;99.90;;;;;;5078534;28;20661;-85
2020/12/30 11:11:36;;;;;;;1999.90;999.90;;;6.30;99.90;;;;;;5078870;28;20207;-85
2020/12/30 11:14:02;;;;;;;1999.90;999.90;;;6.30;99.90;;;;;;5079771;28;20164;-86
2020/12/30 11:16:28;;;;;;;1999.90;999.90;;;6.40;99.90;;;;;;5060806;28;20245;-86
2020/12/30 11:18:54;;;;;;;1999.90;999.90;;;6.50;99.90;;;;;;5061610;28;20163;-86
2020/12/30 11:21:23;;;;;;;1999.90;999.90;;;6.60;99.90;;;;;;5080299;28;20191;-86
2020/12/30 11:23:48;;;;;;;1999.90;999.90;;;6.80;99.90;;;;;;5081040;28;20946;-87
2020/12/30 11:26:17;;;;;;;1999.90;999.90;;;6.90;99.90;;;;;;5081608;28;20171;-86
2020/12/30 11:28:42;;;;;;;1999.90;999.90;;;6.90;99.90;;;;;;5062362;28;20175;-86
2020/12/30 11:31:08;;;;;;;1999.90;999.90;;;6.80;99.90;;;;;;5064175;28;20520;-87
2020/12/30 11:33:34;;;;;;;1999.90;999.90;;;6.80;99.90;;;;;;5080623;28;20168;-87
2020/12/30 11:36:00;;;;;;;1999.90;999.90;;;6.70;99.90;;;;;;5080222;28;20243;-86
2020/12/30 11:38:27;;;;;;;1999.90;999.90;;;6.70;99.90;;;;;;5080270;28;20887;-87
2020/12/30 11:40:52;;;;;;;1999.90;999.90;;;6.70;99.90;;;;;;5061204;28;20195;-86
2020/12/30 11:43:18;;;;;;;1999.90;999.90;;;6.80;99.90;;;;;;5079125;28;20156;-86
2020/12/30 11:45:44;;;;;;;1999.90;999.90;;;6.90;99.90;;;;;;5060749;28;20182;-86
2020/12/30 11:48:10;;;;;;;1999.90;999.90;;;7.00;99.90;;;;;;5061215;28;20202;-86
2020/12/30 11:50:36;;;;;;;1999.90;999.90;;;7.00;99.90;;;;;;5077087;28;20233;-86
2020/12/30 11:53:02;;;;;;;1999.90;999.90;;;7.00;99.90;;;;;;5076831;28;20160;-86
2020/12/30 11:55:28;;;;;;;1999.90;999.90;;;7.00;99.90;;;;;;5077571;28;20398;-86
2020/12/30 11:57:54;;;;;;;1999.90;999.90;;;7.00;99.90;;;;;;5076861;28;20171;-86
2020/12/30 12:00:21;;;;;;;1999.90;999.90;;;7.00;99.90;;;;;;5077208;28;20403;-86
2020/12/30 12:02:46;;;;;;;1999.90;999.90;;;7.00;99.90;;;;;;5078079;28;20168;-87
2020/12/30 12:05:14;;;;;;;1999.90;999.90;;;7.00;99.90;;;;;;5060068;28;20178;-86
2020/12/30 12:07:40;;;;;;;1999.90;999.90;;;7.00;99.90;;;;;;5078516;28;20171;-86
2020/12/30 12:10:08;;;;;;;1999.90;999.90;;;7.10;99.90;;;;;;5078083;28;20209;-85
2020/12/30 12:12:35;;;;;;;1999.90;999.90;;;7.10;99.90;;;;;;5078568;28;20504;-86